PHJR METAR and TAF | Updated Today

PHJR METAR

Kalaeloa Airport

Observation time: 18 min. ago

PHJR 291953Z VRB06G15KT 10SM SCT038 30/19 A3008 RMK AO2 SLP191 T03000189

Need help? Read our tutorial on how to read METARs or read the parsed version below.

Kalaeloa Airport (PHJR) METAR

  • Weather conditions on Thu, 29 Sep 2022 19:53:00 +0000 (18 min. ago):
  • Present conditions: Dry
  • Clouds: Scattered at 1158 meters
  • Visibility: 16093 meters
  • Wind: Variable at 6 knots
  • Temperature: 30 celsius
  • Dew point: 19 celsius
  • Pressure: 30.08 inHg
  • Remarks: AO2 SLP191 T03000189


Useful to know...

PHJR TAF

Kalaeloa Airport

PHJR 291724Z 2918/3018 04005KT P6SM SKC FM292000 08009G16KT P6SM SCT040 TEMPO 2920/2924 VRB06G12KT FM300500 05004KT P6SM FEW035
Observation time: 2:47 hr. ago
Need help? Read our tutorial on how to read TAFs or read the parsed version below.

Parsed version of TAF for Kalaeloa Airport (PHJR)

  • From 29 September at 18:00 UTC, to day 30 of the month at 18:00 UTC
  • Clouds: No significant changes expected
  • Wind: 40 degrees at 5
  • From day 29 of the month at 20:00 UTC
  • Clouds: Scattered at 1219 meters
  • Wind: 80 degrees at 9
  • Expected to arise temporarily, from 29 September at 20:00 UTC, to day 29 of the month at 24:00 UTC
  • Wind: Variable at 6
  • From day 30 of the month at 05:00 UTC
  • Clouds: A few at 1067 meters
  • Wind: 50 degrees at 4